sensor_id;sensor_type;location;lat;lon;timestamp;pressure;altitude;pressure_sealevel;temperature
24586;BMP280;12743;52.262;6.172;2023-04-12T00:00:35;99568.78;;;9.25
24586;BMP280;12743;52.262;6.172;2023-04-12T00:03:04;99556.63;;;9.33
24586;BMP280;12743;52.262;6.172;2023-04-12T00:05:31;99566.56;;;9.43
24586;BMP280;12743;52.262;6.172;2023-04-12T00:07:59;99563.25;;;9.46
24586;BMP280;12743;52.262;6.172;2023-04-12T00:10:30;99532.09;;;9.41
24586;BMP280;12743;52.262;6.172;2023-04-12T00:12:57;99499.47;;;9.38
24586;BMP280;12743;52.262;6.172;2023-04-12T00:15:23;99470.56;;;9.35
24586;BMP280;12743;52.262;6.172;2023-04-12T00:17:50;99454.38;;;9.29
24586;BMP280;12743;52.262;6.172;2023-04-12T00:20:16;99437.22;;;9.32
24586;BMP280;12743;52.262;6.172;2023-04-12T00:22:43;99373.81;;;9.07
24586;BMP280;12743;52.262;6.172;2023-04-12T00:25:10;99373.19;;;9.10
24586;BMP280;12743;52.262;6.172;2023-04-12T00:27:37;99339.78;;;9.07
24586;BMP280;12743;52.262;6.172;2023-04-12T00:30:05;99328.53;;;9.03
24586;BMP280;12743;52.262;6.172;2023-04-12T00:32:34;99243.03;;;8.72
24586;BMP280;12743;52.262;6.172;2023-04-12T00:35:00;99238.88;;;8.91
24586;BMP280;12743;52.262;6.172;2023-04-12T00:37:27;99231.69;;;8.88
24586;BMP280;12743;52.262;6.172;2023-04-12T00:39:54;99142.00;;;8.49
24586;BMP280;12743;52.262;6.172;2023-04-12T00:42:21;99183.72;;;8.80
24586;BMP280;12743;52.262;6.172;2023-04-12T00:44:48;99163.53;;;8.81
24586;BMP280;12743;52.262;6.172;2023-04-12T00:47:14;99109.25;;;8.55
24586;BMP280;12743;52.262;6.172;2023-04-12T00:49:41;99122.63;;;8.72
24586;BMP280;12743;52.262;6.172;2023-04-12T00:52:09;99090.72;;;8.63
24586;BMP280;12743;52.262;6.172;2023-04-12T00:54:41;99087.53;;;8.73
24586;BMP280;12743;52.262;6.172;2023-04-12T00:57:09;99057.69;;;8.55
24586;BMP280;12743;52.262;6.172;2023-04-12T00:59:36;99056.00;;;8.66
24586;BMP280;12743;52.262;6.172;2023-04-12T01:02:02;99040.56;;;8.61
24586;BMP280;12743;52.262;6.172;2023-04-12T01:04:29;99037.16;;;8.57
24586;BMP280;12743;52.262;6.172;2023-04-12T01:07:04;99009.50;;;8.56
24586;BMP280;12743;52.262;6.172;2023-04-12T01:12:33;98986.66;;;8.53
24586;BMP280;12743;52.262;6.172;2023-04-12T01:15:12;98982.81;;;8.47
24586;BMP280;12743;52.262;6.172;2023-04-12T01:17:51;98943.25;;;8.26
24586;BMP280;12743;52.262;6.172;2023-04-12T01:20:25;98968.91;;;8.43
24586;BMP280;12743;52.262;6.172;2023-04-12T01:23:11;98949.03;;;8.39
24586;BMP280;12743;52.262;6.172;2023-04-12T01:26:09;98930.09;;;8.45
24586;BMP280;12743;52.262;6.172;2023-04-12T01:28:40;98909.03;;;8.38
24586;BMP280;12743;52.262;6.172;2023-04-12T01:31:07;98880.75;;;8.21
24586;BMP280;12743;52.262;6.172;2023-04-12T01:33:37;98892.97;;;8.36
24586;BMP280;12743;52.262;6.172;2023-04-12T01:36:31;98871.97;;;8.33
24586;BMP280;12743;52.262;6.172;2023-04-12T01:39:01;98831.63;;;8.07
24586;BMP280;12743;52.262;6.172;2023-04-12T01:41:31;98867.44;;;8.30
24586;BMP280;12743;52.262;6.172;2023-04-12T01:43:58;98860.53;;;8.18
24586;BMP280;12743;52.262;6.172;2023-04-12T01:46:24;98858.34;;;8.20
24586;BMP280;12743;52.262;6.172;2023-04-12T01:48:52;98800.50;;;7.99
24586;BMP280;12743;52.262;6.172;2023-04-12T01:54:08;98826.34;;;8.27
24586;BMP280;12743;52.262;6.172;2023-04-12T01:56:40;98819.47;;;8.19
24586;BMP280;12743;52.262;6.172;2023-04-12T01:59:12;98810.47;;;8.16
24586;BMP280;12743;52.262;6.172;2023-04-12T02:01:42;98801.59;;;8.21
24586;BMP280;12743;52.262;6.172;2023-04-12T02:04:10;98790.75;;;8.22
24586;BMP280;12743;52.262;6.172;2023-04-12T02:06:38;98777.47;;;8.08
24586;BMP280;12743;52.262;6.172;2023-04-12T02:09:04;98767.50;;;8.14
24586;BMP280;12743;52.262;6.172;2023-04-12T02:11:32;98748.28;;;8.02
24586;BMP280;12743;52.262;6.172;2023-04-12T02:13:58;98748.31;;;8.06
24586;BMP280;12743;52.262;6.172;2023-04-12T02:16:26;98700.38;;;7.69
24586;BMP280;12743;52.262;6.172;2023-04-12T02:18:54;98743.44;;;8.01
24586;BMP280;12743;52.262;6.172;2023-04-12T02:21:22;98712.50;;;7.80
24586;BMP280;12743;52.262;6.172;2023-04-12T02:23:49;98711.41;;;7.85
24586;BMP280;12743;52.262;6.172;2023-04-12T02:26:16;98705.75;;;7.79
24586;BMP280;12743;52.262;6.172;2023-04-12T02:28:43;98719.19;;;8.04
24586;BMP280;12743;52.262;6.172;2023-04-12T02:31:12;98701.03;;;7.88
24586;BMP280;12743;52.262;6.172;2023-04-12T02:33:39;98684.78;;;7.76
24586;BMP280;12743;52.262;6.172;2023-04-12T02:36:09;98674.47;;;7.83
24586;BMP280;12743;52.262;6.172;2023-04-12T02:38:36;98688.31;;;7.87
24586;BMP280;12743;52.262;6.172;2023-04-12T02:41:05;98672.34;;;7.92
24586;BMP280;12743;52.262;6.172;2023-04-12T02:43:33;98666.50;;;8.02
24586;BMP280;12743;52.262;6.172;2023-04-12T02:46:03;98655.66;;;8.00
24586;BMP280;12743;52.262;6.172;2023-04-12T02:48:38;98636.53;;;7.92
24586;BMP280;12743;52.262;6.172;2023-04-12T02:51:05;98642.59;;;8.00
24586;BMP280;12743;52.262;6.172;2023-04-12T02:53:32;98617.63;;;7.76
24586;BMP280;12743;52.262;6.172;2023-04-12T02:56:13;98591.03;;;7.67
24586;BMP280;12743;52.262;6.172;2023-04-12T02:58:41;98589.56;;;7.70
24586;BMP280;12743;52.262;6.172;2023-04-12T03:01:12;98598.78;;;7.90
24586;BMP280;12743;52.262;6.172;2023-04-12T03:03:59;98571.94;;;7.63
24586;BMP280;12743;52.262;6.172;2023-04-12T03:06:38;98602.97;;;7.94
24586;BMP280;12743;52.262;6.172;2023-04-12T03:09:21;98568.06;;;7.80
24586;BMP280;12743;52.262;6.172;2023-04-12T03:11:48;98588.03;;;7.95
24586;BMP280;12743;52.262;6.172;2023-04-12T03:14:15;98595.88;;;7.95
24586;BMP280;12743;52.262;6.172;2023-04-12T03:16:42;98574.56;;;7.93
24586;BMP280;12743;52.262;6.172;2023-04-12T03:19:13;98536.50;;;7.66
24586;BMP280;12743;52.262;6.172;2023-04-12T03:21:43;98563.25;;;7.85
24586;BMP280;12743;52.262;6.172;2023-04-12T03:24:10;98573.81;;;7.92
24586;BMP280;12743;52.262;6.172;2023-04-12T03:26:37;98557.78;;;7.94
24586;BMP280;12743;52.262;6.172;2023-04-12T03:29:15;98557.78;;;7.94
24586;BMP280;12743;52.262;6.172;2023-04-12T03:31:43;98520.69;;;7.81
24586;BMP280;12743;52.262;6.172;2023-04-12T03:34:09;98526.66;;;7.82
24586;BMP280;12743;52.262;6.172;2023-04-12T03:36:41;98533.53;;;7.97
24586;BMP280;12743;52.262;6.172;2023-04-12T03:39:16;98533.09;;;7.91
24586;BMP280;12743;52.262;6.172;2023-04-12T03:41:47;98535.75;;;7.95
24586;BMP280;12743;52.262;6.172;2023-04-12T03:44:14;98512.19;;;7.91
24586;BMP280;12743;52.262;6.172;2023-04-12T03:46:41;98518.59;;;7.94
24586;BMP280;12743;52.262;6.172;2023-04-12T03:49:10;98520.81;;;7.95
24586;BMP280;12743;52.262;6.172;2023-04-12T03:51:38;98507.38;;;7.93
24586;BMP280;12743;52.262;6.172;2023-04-12T03:54:09;98505.53;;;7.94
24586;BMP280;12743;52.262;6.172;2023-04-12T03:56:47;98492.72;;;7.85
24586;BMP280;12743;52.262;6.172;2023-04-12T03:59:21;98504.72;;;7.90
24586;BMP280;12743;52.262;6.172;2023-04-12T04:01:49;98505.47;;;7.90
24586;BMP280;12743;52.262;6.172;2023-04-12T04:04:15;98496.44;;;7.84
24586;BMP280;12743;52.262;6.172;2023-04-12T04:06:42;98490.19;;;7.92
24586;BMP280;12743;52.262;6.172;2023-04-12T04:09:09;98476.78;;;7.94
24586;BMP280;12743;52.262;6.172;2023-04-12T04:11:37;98380.16;;;7.27
24586;BMP280;12743;52.262;6.172;2023-04-12T04:14:05;98439.53;;;7.67
24586;BMP280;12743;52.262;6.172;2023-04-12T04:16:32;98457.63;;;7.83
24586;BMP280;12743;52.262;6.172;2023-04-12T04:19:01;98451.53;;;7.75
24586;BMP280;12743;52.262;6.172;2023-04-12T04:21:27;98448.66;;;7.80
24586;BMP280;12743;52.262;6.172;2023-04-12T04:24:00;98445.97;;;7.77
24586;BMP280;12743;52.262;6.172;2023-04-12T04:26:32;98435.16;;;7.75
24586;BMP280;12743;52.262;6.172;2023-04-12T04:29:11;98407.75;;;7.62
24586;BMP280;12743;52.262;6.172;2023-04-12T04:31:38;98418.72;;;7.74
24586;BMP280;12743;52.262;6.172;2023-04-12T04:34:06;98402.28;;;7.74
24586;BMP280;12743;52.262;6.172;2023-04-12T04:36:55;98395.19;;;7.71
24586;BMP280;12743;52.262;6.172;2023-04-12T04:39:25;98386.22;;;7.72
24586;BMP280;12743;52.262;6.172;2023-04-12T04:41:54;98377.63;;;7.68
24586;BMP280;12743;52.262;6.172;2023-04-12T04:44:37;98379.44;;;7.64
24586;BMP280;12743;52.262;6.172;2023-04-12T04:47:06;98376.81;;;7.64
24586;BMP280;12743;52.262;6.172;2023-04-12T04:49:35;98367.56;;;7.70
24586;BMP280;12743;52.262;6.172;2023-04-12T04:52:10;98362.94;;;7.56
24586;BMP280;12743;52.262;6.172;2023-04-12T04:54:36;98365.25;;;7.61
24586;BMP280;12743;52.262;6.172;2023-04-12T04:57:04;98361.84;;;7.57
24586;BMP280;12743;52.262;6.172;2023-04-12T04:59:34;98353.56;;;7.48
24586;BMP280;12743;52.262;6.172;2023-04-12T05:02:12;98349.84;;;7.53
24586;BMP280;12743;52.262;6.172;2023-04-12T05:04:39;98354.00;;;7.57
24586;BMP280;12743;52.262;6.172;2023-04-12T05:07:06;98345.09;;;7.62
24586;BMP280;12743;52.262;6.172;2023-04-12T05:09:34;98343.19;;;7.59
24586;BMP280;12743;52.262;6.172;2023-04-12T05:12:00;98340.56;;;7.59
24586;BMP280;12743;52.262;6.172;2023-04-12T05:14:28;98345.41;;;7.57
24586;BMP280;12743;52.262;6.172;2023-04-12T05:17:12;98337.91;;;7.55
24586;BMP280;12743;52.262;6.172;2023-04-12T05:19:40;98335.78;;;7.61
24586;BMP280;12743;52.262;6.172;2023-04-12T05:22:06;98325.22;;;7.54
24586;BMP280;12743;52.262;6.172;2023-04-12T05:24:33;98341.25;;;7.52
24586;BMP280;12743;52.262;6.172;2023-04-12T05:26:59;98332.69;;;7.55
24586;BMP280;12743;52.262;6.172;2023-04-12T05:29:26;98322.63;;;7.54
24586;BMP280;12743;52.262;6.172;2023-04-12T05:31:53;98324.84;;;7.52
24586;BMP280;12743;52.262;6.172;2023-04-12T05:34:22;98321.47;;;7.51
24586;BMP280;12743;52.262;6.172;2023-04-12T05:36:52;98315.88;;;7.53
24586;BMP280;12743;52.262;6.172;2023-04-12T05:39:20;98293.03;;;7.39
24586;BMP280;12743;52.262;6.172;2023-04-12T05:41:48;98303.94;;;7.48
24586;BMP280;12743;52.262;6.172;2023-04-12T05:44:14;98315.53;;;7.54
24586;BMP280;12743;52.262;6.172;2023-04-12T05:46:41;98312.94;;;7.54
24586;BMP280;12743;52.262;6.172;2023-04-12T05:49:08;98303.53;;;7.46
24586;BMP280;12743;52.262;6.172;2023-04-12T05:51:34;98294.22;;;7.49
24586;BMP280;12743;52.262;6.172;2023-04-12T05:54:15;98294.97;;;7.49
24586;BMP280;12743;52.262;6.172;2023-04-12T05:56:41;98292.03;;;7.54
24586;BMP280;12743;52.262;6.172;2023-04-12T05:59:08;98277.84;;;7.48
24586;BMP280;12743;52.262;6.172;2023-04-12T06:01:36;98292.84;;;7.62
24586;BMP280;12743;52.262;6.172;2023-04-12T06:04:04;98295.84;;;7.60
24586;BMP280;12743;52.262;6.172;2023-04-12T06:06:31;98299.56;;;7.59
24586;BMP280;12743;52.262;6.172;2023-04-12T06:08:58;98283.16;;;7.62
24586;BMP280;12743;52.262;6.172;2023-04-12T06:11:27;98291.72;;;7.63
24586;BMP280;12743;52.262;6.172;2023-04-12T06:13:54;98294.66;;;7.54
24586;BMP280;12743;52.262;6.172;2023-04-12T06:16:21;98263.84;;;7.30
24586;BMP280;12743;52.262;6.172;2023-04-12T06:18:48;98272.19;;;7.46
24586;BMP280;12743;52.262;6.172;2023-04-12T06:21:14;98297.31;;;7.58
24586;BMP280;12743;52.262;6.172;2023-04-12T06:23:41;98287.59;;;7.55
24586;BMP280;12743;52.262;6.172;2023-04-12T06:26:08;98256.47;;;7.39
24586;BMP280;12743;52.262;6.172;2023-04-12T06:28:35;98243.69;;;7.27
24586;BMP280;12743;52.262;6.172;2023-04-12T06:31:01;98275.94;;;7.49
24586;BMP280;12743;52.262;6.172;2023-04-12T06:33:33;98205.44;;;7.01
24586;BMP280;12743;52.262;6.172;2023-04-12T06:36:05;98272.25;;;7.53
24586;BMP280;12743;52.262;6.172;2023-04-12T06:38:32;98253.91;;;7.46
24586;BMP280;12743;52.262;6.172;2023-04-12T06:40:59;98276.38;;;7.54
24586;BMP280;12743;52.262;6.172;2023-04-12T06:43:25;98258.09;;;7.51
24586;BMP280;12743;52.262;6.172;2023-04-12T06:45:52;98265.22;;;7.57
24586;BMP280;12743;52.262;6.172;2023-04-12T06:48:18;98219.84;;;7.28
24586;BMP280;12743;52.262;6.172;2023-04-12T06:50:45;98239.81;;;7.51
24586;BMP280;12743;52.262;6.172;2023-04-12T06:53:12;98258.19;;;7.61
24586;BMP280;12743;52.262;6.172;2023-04-12T06:55:39;98253.69;;;7.62
24586;BMP280;12743;52.262;6.172;2023-04-12T06:58:06;98238.03;;;7.62
24586;BMP280;12743;52.262;6.172;2023-04-12T07:00:32;98227.56;;;7.58
24586;BMP280;12743;52.262;6.172;2023-04-12T07:03:00;98227.56;;;7.62
24586;BMP280;12743;52.262;6.172;2023-04-12T07:05:27;98234.22;;;7.56
24586;BMP280;12743;52.262;6.172;2023-04-12T07:07:53;98238.75;;;7.59
24586;BMP280;12743;52.262;6.172;2023-04-12T07:10:20;98226.09;;;7.61
24586;BMP280;12743;52.262;6.172;2023-04-12T07:12:46;98233.94;;;7.61
24586;BMP280;12743;52.262;6.172;2023-04-12T07:15:13;98230.94;;;7.66
24586;BMP280;12743;52.262;6.172;2023-04-12T07:17:39;98193.84;;;7.42
24586;BMP280;12743;52.262;6.172;2023-04-12T07:20:06;98227.97;;;7.64
24586;BMP280;12743;52.262;6.172;2023-04-12T07:22:33;98227.59;;;7.65
24586;BMP280;12743;52.262;6.172;2023-04-12T07:24:59;98221.63;;;7.65
24586;BMP280;12743;52.262;6.172;2023-04-12T07:27:26;98219.75;;;7.65
24586;BMP280;12743;52.262;6.172;2023-04-12T07:29:53;98225.41;;;7.71
24586;BMP280;12743;52.262;6.172;2023-04-12T07:32:19;98229.50;;;7.72
24586;BMP280;12743;52.262;6.172;2023-04-12T07:34:46;98218.31;;;7.68
24586;BMP280;12743;52.262;6.172;2023-04-12T07:37:13;98208.19;;;7.66
24586;BMP280;12743;52.262;6.172;2023-04-12T07:39:39;98209.72;;;7.67
24586;BMP280;12743;52.262;6.172;2023-04-12T07:42:06;98205.97;;;7.65
24586;BMP280;12743;52.262;6.172;2023-04-12T07:44:33;98193.16;;;7.49
24586;BMP280;12743;52.262;6.172;2023-04-12T07:47:02;98212.38;;;7.74
24586;BMP280;12743;52.262;6.172;2023-04-12T07:49:28;98203.06;;;7.73
24586;BMP280;12743;52.262;6.172;2023-04-12T07:51:55;98213.13;;;7.75
24586;BMP280;12743;52.262;6.172;2023-04-12T07:54:26;98203.47;;;7.82
24586;BMP280;12743;52.262;6.172;2023-04-12T07:56:57;98209.81;;;7.81
24586;BMP280;12743;52.262;6.172;2023-04-12T07:59:24;98198.63;;;7.84
24586;BMP280;12743;52.262;6.172;2023-04-12T08:01:51;98207.22;;;7.88
24586;BMP280;12743;52.262;6.172;2023-04-12T08:04:18;98216.53;;;7.86
24586;BMP280;12743;52.262;6.172;2023-04-12T08:06:44;98212.06;;;7.86
24586;BMP280;12743;52.262;6.172;2023-04-12T08:09:11;98207.59;;;7.87
24586;BMP280;12743;52.262;6.172;2023-04-12T08:11:38;98202.75;;;7.89
24586;BMP280;12743;52.262;6.172;2023-04-12T08:14:05;98209.16;;;7.95
24586;BMP280;12743;52.262;6.172;2023-04-12T08:16:31;98209.88;;;7.92
24586;BMP280;12743;52.262;6.172;2023-04-12T08:18:58;98203.56;;;7.96
24586;BMP280;12743;52.262;6.172;2023-04-12T08:21:25;98200.94;;;7.96
24586;BMP280;12743;52.262;6.172;2023-04-12T08:23:52;98208.41;;;7.98
24586;BMP280;12743;52.262;6.172;2023-04-12T08:26:19;98202.81;;;7.99
24586;BMP280;12743;52.262;6.172;2023-04-12T08:28:46;98188.31;;;8.09
24586;BMP280;12743;52.262;6.172;2023-04-12T08:31:14;98193.56;;;8.16
24586;BMP280;12743;52.262;6.172;2023-04-12T08:33:41;98195.84;;;8.18
24586;BMP280;12743;52.262;6.172;2023-04-12T08:36:07;98199.56;;;8.17
24586;BMP280;12743;52.262;6.172;2023-04-12T08:38:36;98194.34;;;8.20
24586;BMP280;12743;52.262;6.172;2023-04-12T08:41:11;98180.16;;;8.21
24586;BMP280;12743;52.262;6.172;2023-04-12T08:43:42;98190.72;;;8.42
24586;BMP280;12743;52.262;6.172;2023-04-12T08:46:09;98182.13;;;8.49
24586;BMP280;12743;52.262;6.172;2023-04-12T08:48:36;98172.03;;;8.51
24586;BMP280;12743;52.262;6.172;2023-04-12T08:51:03;98192.25;;;8.50
24586;BMP280;12743;52.262;6.172;2023-04-12T08:53:31;98186.28;;;8.53
24586;BMP280;12743;52.262;6.172;2023-04-12T08:55:59;98187.47;;;8.73
24586;BMP280;12743;52.262;6.172;2023-04-12T08:58:26;98190.81;;;8.70
24586;BMP280;12743;52.262;6.172;2023-04-12T09:00:53;98179.25;;;8.82
24586;BMP280;12743;52.262;6.172;2023-04-12T09:03:19;98184.09;;;8.80
24586;BMP280;12743;52.262;6.172;2023-04-12T09:05:47;98182.25;;;8.81
24586;BMP280;12743;52.262;6.172;2023-04-12T09:08:13;98186.72;;;8.73
24586;BMP280;12743;52.262;6.172;2023-04-12T09:10:42;98163.16;;;8.69
24586;BMP280;12743;52.262;6.172;2023-04-12T09:13:08;98182.94;;;8.77
24586;BMP280;12743;52.262;6.172;2023-04-12T09:15:35;98182.94;;;8.74
24586;BMP280;12743;52.262;6.172;2023-04-12T09:18:10;98184.47;;;8.89
24586;BMP280;12743;52.262;6.172;2023-04-12T09:20:38;98182.22;;;8.84
24586;BMP280;12743;52.262;6.172;2023-04-12T09:23:18;98173.63;;;8.98
24586;BMP280;12743;52.262;6.172;2023-04-12T09:25:45;98174.78;;;9.11
24586;BMP280;12743;52.262;6.172;2023-04-12T09:28:24;98177.41;;;9.18
24586;BMP280;12743;52.262;6.172;2023-04-12T09:30:52;98162.81;;;9.17
24586;BMP280;12743;52.262;6.172;2023-04-12T09:33:22;98128.06;;;8.95
24586;BMP280;12743;52.262;6.172;2023-04-12T09:35:49;98154.59;;;9.29
24586;BMP280;12743;52.262;6.172;2023-04-12T09:38:16;98141.41;;;9.71
24586;BMP280;12743;52.262;6.172;2023-04-12T09:40:43;98133.84;;;10.01
24586;BMP280;12743;52.262;6.172;2023-04-12T09:43:10;98124.94;;;9.85
24586;BMP280;12743;52.262;6.172;2023-04-12T09:45:36;98120.03;;;9.83
24586;BMP280;12743;52.262;6.172;2023-04-12T09:48:06;98111.63;;;10.24
24586;BMP280;12743;52.262;6.172;2023-04-12T09:50:33;98112.47;;;10.06
24586;BMP280;12743;52.262;6.172;2023-04-12T09:53:02;98127.78;;;10.15
24586;BMP280;12743;52.262;6.172;2023-04-12T09:55:29;98124.41;;;10.15
24586;BMP280;12743;52.262;6.172;2023-04-12T09:58:01;98146.53;;;10.06
24586;BMP280;12743;52.262;6.172;2023-04-12T10:00:29;98154.03;;;10.12
24586;BMP280;12743;52.262;6.172;2023-04-12T10:02:57;98155.53;;;10.09
24586;BMP280;12743;52.262;6.172;2023-04-12T10:05:24;98165.63;;;10.14
24586;BMP280;12743;52.262;6.172;2023-04-12T10:07:52;98161.72;;;10.47
24586;BMP280;12743;52.262;6.172;2023-04-12T10:10:21;98163.56;;;10.46
24586;BMP280;12743;52.262;6.172;2023-04-12T10:12:49;98165.44;;;10.49
24586;BMP280;12743;52.262;6.172;2023-04-12T10:15:16;98175.94;;;10.53
24586;BMP280;12743;52.262;6.172;2023-04-12T10:17:47;98187.63;;;10.38
24586;BMP280;12743;52.262;6.172;2023-04-12T10:20:15;98190.53;;;10.54
24586;BMP280;12743;52.262;6.172;2023-04-12T10:22:47;98200.72;;;10.38
24586;BMP280;12743;52.262;6.172;2023-04-12T10:25:19;98153.97;;;10.26
24586;BMP280;12743;52.262;6.172;2023-04-12T10:27:46;98209.09;;;10.88
24586;BMP280;12743;52.262;6.172;2023-04-12T10:30:19;98250.59;;;11.07
24586;BMP280;12743;52.262;6.172;2023-04-12T10:32:46;98313.34;;;10.87
24586;BMP280;12743;52.262;6.172;2023-04-12T10:35:14;98295.75;;;10.84
24586;BMP280;12743;52.262;6.172;2023-04-12T10:38:00;98303.94;;;10.93
24586;BMP280;12743;52.262;6.172;2023-04-12T10:40:28;98327.59;;;10.90
24586;BMP280;12743;52.262;6.172;2023-04-12T10:43:23;98353.47;;;10.91
24586;BMP280;12743;52.262;6.172;2023-04-12T10:45:50;98313.69;;;10.93
24586;BMP280;12743;52.262;6.172;2023-04-12T10:48:36;98308.81;;;10.95
24586;BMP280;12743;52.262;6.172;2023-04-12T10:51:14;98309.97;;;10.90
24586;BMP280;12743;52.262;6.172;2023-04-12T10:53:41;98275.72;;;10.32
24586;BMP280;12743;52.262;6.172;2023-04-12T10:59:03;98341.28;;;11.80
24586;BMP280;12743;52.262;6.172;2023-04-12T11:01:39;98371.50;;;11.58
24586;BMP280;12743;52.262;6.172;2023-04-12T11:04:16;98461.47;;;11.80
24586;BMP280;12743;52.262;6.172;2023-04-12T11:09:44;98571.94;;;11.73
24586;BMP280;12743;52.262;6.172;2023-04-12T11:12:16;98551.69;;;11.59
24586;BMP280;12743;52.262;6.172;2023-04-12T11:14:47;98602.69;;;11.79
24586;BMP280;12743;52.262;6.172;2023-04-12T11:22:21;98569.81;;;12.12
24586;BMP280;12743;52.262;6.172;2023-04-12T11:24:50;98643.41;;;12.26
24586;BMP280;12743;52.262;6.172;2023-04-12T11:27:21;98659.53;;;12.39
24586;BMP280;12743;52.262;6.172;2023-04-12T11:29:52;98608.44;;;12.29
24586;BMP280;12743;52.262;6.172;2023-04-12T11:32:22;98651.78;;;12.17
24586;BMP280;12743;52.262;6.172;2023-04-12T11:34:49;98746.94;;;11.77
24586;BMP280;12743;52.262;6.172;2023-04-12T11:37:19;98738.19;;;12.19
24586;BMP280;12743;52.262;6.172;2023-04-12T11:39:49;98751.34;;;12.12
24586;BMP280;12743;52.262;6.172;2023-04-12T11:42:18;98792.75;;;12.01
24586;BMP280;12743;52.262;6.172;2023-04-12T11:44:46;98755.88;;;12.11
24586;BMP280;12743;52.262;6.172;2023-04-12T11:47:25;98784.09;;;12.04
24586;BMP280;12743;52.262;6.172;2023-04-12T11:49:54;98764.19;;;11.99
24586;BMP280;12743;52.262;6.172;2023-04-12T11:52:26;98725.03;;;12.12
24586;BMP280;12743;52.262;6.172;2023-04-12T11:54:54;98782.22;;;11.90
24586;BMP280;12743;52.262;6.172;2023-04-12T11:57:24;98768.34;;;11.79
24586;BMP280;12743;52.262;6.172;2023-04-12T11:59:51;98698.16;;;11.59
24586;BMP280;12743;52.262;6.172;2023-04-12T12:02:19;98676.06;;;11.38
24586;BMP280;12743;52.262;6.172;2023-04-12T12:04:50;98603.91;;;11.61
24586;BMP280;12743;52.262;6.172;2023-04-12T12:07:18;98601.56;;;11.77
24586;BMP280;12743;52.262;6.172;2023-04-12T12:09:47;98527.63;;;11.71
24586;BMP280;12743;52.262;6.172;2023-04-12T12:12:15;98531.31;;;11.88
24586;BMP280;12743;52.262;6.172;2023-04-12T12:14:43;98543.47;;;12.19
24586;BMP280;12743;52.262;6.172;2023-04-12T12:17:11;98579.22;;;12.13
24586;BMP280;12743;52.262;6.172;2023-04-12T12:19:40;98608.56;;;12.08
24586;BMP280;12743;52.262;6.172;2023-04-12T12:22:17;98582.56;;;12.20
24586;BMP280;12743;52.262;6.172;2023-04-12T12:24:53;98731.78;;;12.31
24586;BMP280;12743;52.262;6.172;2023-04-12T12:27:34;98741.53;;;12.30
24586;BMP280;12743;52.262;6.172;2023-04-12T12:30:01;98753.22;;;12.15
24586;BMP280;12743;52.262;6.172;2023-04-12T12:32:33;98717.63;;;11.86
24586;BMP280;12743;52.262;6.172;2023-04-12T12:35:07;98746.19;;;11.84
24586;BMP280;12743;52.262;6.172;2023-04-12T12:37:34;98760.84;;;11.64
24586;BMP280;12743;52.262;6.172;2023-04-12T12:40:05;98798.03;;;11.41
24586;BMP280;12743;52.262;6.172;2023-04-12T12:42:43;98820.88;;;11.12
24586;BMP280;12743;52.262;6.172;2023-04-12T12:45:12;98804.72;;;10.96
24586;BMP280;12743;52.262;6.172;2023-04-12T12:47:58;98835.19;;;11.29
24586;BMP280;12743;52.262;6.172;2023-04-12T12:50:33;98891.16;;;11.43
24586;BMP280;12743;52.262;6.172;2023-04-12T12:53:01;98894.13;;;11.31
24586;BMP280;12743;52.262;6.172;2023-04-12T12:55:28;98873.53;;;11.51
24586;BMP280;12743;52.262;6.172;2023-04-12T12:57:56;98874.59;;;11.39
24586;BMP280;12743;52.262;6.172;2023-04-12T13:00:27;98889.63;;;11.42
24586;BMP280;12743;52.262;6.172;2023-04-12T13:02:54;98899.06;;;11.58
24586;BMP280;12743;52.262;6.172;2023-04-12T13:05:21;98904.72;;;11.74
24586;BMP280;12743;52.262;6.172;2023-04-12T13:07:49;98896.84;;;11.81
24586;BMP280;12743;52.262;6.172;2023-04-12T13:10:15;98891.16;;;11.54
24586;BMP280;12743;52.262;6.172;2023-04-12T13:12:42;98891.94;;;12.00
24586;BMP280;12743;52.262;6.172;2023-04-12T13:15:09;98864.53;;;11.98
24586;BMP280;12743;52.262;6.172;2023-04-12T13:17:47;98868.28;;;12.11
24586;BMP280;12743;52.262;6.172;2023-04-12T13:20:14;98899.09;;;11.82
24586;BMP280;12743;52.262;6.172;2023-04-12T13:22:40;98859.63;;;12.14
24586;BMP280;12743;52.262;6.172;2023-04-12T13:25:07;98902.50;;;11.97
24586;BMP280;12743;52.262;6.172;2023-04-12T13:27:34;98906.56;;;12.12
24586;BMP280;12743;52.262;6.172;2023-04-12T13:30:01;98906.91;;;12.49
24586;BMP280;12743;52.262;6.172;2023-04-12T13:32:27;98920.22;;;13.15
24586;BMP280;12743;52.262;6.172;2023-04-12T13:34:54;98973.31;;;13.17
24586;BMP280;12743;52.262;6.172;2023-04-12T13:37:21;98968.09;;;13.03
24586;BMP280;12743;52.262;6.172;2023-04-12T13:39:49;99048.28;;;12.91
24586;BMP280;12743;52.262;6.172;2023-04-12T13:42:16;99054.31;;;12.99
24586;BMP280;12743;52.262;6.172;2023-04-12T13:44:43;99101.75;;;12.63
24586;BMP280;12743;52.262;6.172;2023-04-12T13:47:09;99145.34;;;13.42
24586;BMP280;12743;52.262;6.172;2023-04-12T13:49:36;99201.03;;;13.76
24586;BMP280;12743;52.262;6.172;2023-04-12T13:52:03;99077.63;;;13.11
24586;BMP280;12743;52.262;6.172;2023-04-12T13:54:29;99049.78;;;13.03
24586;BMP280;12743;52.262;6.172;2023-04-12T13:56:56;99091.94;;;12.88
24586;BMP280;12743;52.262;6.172;2023-04-12T13:59:24;99107.00;;;12.81
24586;BMP280;12743;52.262;6.172;2023-04-12T14:01:51;99097.22;;;12.85
24586;BMP280;12743;52.262;6.172;2023-04-12T14:04:18;99043.81;;;12.49
24586;BMP280;12743;52.262;6.172;2023-04-12T14:06:45;99163.78;;;12.40
24586;BMP280;12743;52.262;6.172;2023-04-12T14:09:26;99179.94;;;12.42
24586;BMP280;12743;52.262;6.172;2023-04-12T14:11:54;99211.06;;;12.18
24586;BMP280;12743;52.262;6.172;2023-04-12T14:14:22;99204.63;;;12.02
24586;BMP280;12743;52.262;6.172;2023-04-12T14:16:50;99214.09;;;12.10
24586;BMP280;12743;52.262;6.172;2023-04-12T14:19:23;99228.25;;;11.91
24586;BMP280;12743;52.262;6.172;2023-04-12T14:21:50;99210.16;;;11.76
24586;BMP280;12743;52.262;6.172;2023-04-12T14:24:18;99207.91;;;11.78
24586;BMP280;12743;52.262;6.172;2023-04-12T14:26:45;99210.16;;;11.79
24586;BMP280;12743;52.262;6.172;2023-04-12T14:29:12;99217.94;;;11.65
24586;BMP280;12743;52.262;6.172;2023-04-12T14:31:39;99217.22;;;11.72
24586;BMP280;12743;52.262;6.172;2023-04-12T14:34:06;99222.06;;;11.63
24586;BMP280;12743;52.262;6.172;2023-04-12T14:36:36;99200.25;;;11.62
24586;BMP280;12743;52.262;6.172;2023-04-12T14:39:02;99209.63;;;11.53
24586;BMP280;12743;52.262;6.172;2023-04-12T14:41:33;99189.63;;;11.37
24586;BMP280;12743;52.262;6.172;2023-04-12T14:43:59;99220.78;;;11.42